sensor_id;sensor_type;location;lat;lon;timestamp;P1;durP1;ratioP1;P2;durP2;ratioP2
32186;SDS011;18686;53.084;8.872;2024-03-08T00:00:17;31.05;;;18.73;;
32186;SDS011;18686;53.084;8.872;2024-03-08T00:02:48;27.58;;;18.05;;
32186;SDS011;18686;53.084;8.872;2024-03-08T00:05:17;29.65;;;19.98;;
32186;SDS011;18686;53.084;8.872;2024-03-08T00:07:46;29.45;;;19.80;;
32186;SDS011;18686;53.084;8.872;2024-03-08T00:10:15;31.45;;;19.50;;
32186;SDS011;18686;53.084;8.872;2024-03-08T00:12:44;30.92;;;19.60;;
32186;SDS011;18686;53.084;8.872;2024-03-08T00:15:14;27.38;;;18.88;;
32186;SDS011;18686;53.084;8.872;2024-03-08T00:17:45;32.28;;;20.05;;
32186;SDS011;18686;53.084;8.872;2024-03-08T00:20:16;27.33;;;20.05;;
32186;SDS011;18686;53.084;8.872;2024-03-08T00:22:46;30.33;;;19.40;;
32186;SDS011;18686;53.084;8.872;2024-03-08T00:25:14;28.20;;;18.70;;
32186;SDS011;18686;53.084;8.872;2024-03-08T00:27:42;33.00;;;19.65;;
32186;SDS011;18686;53.084;8.872;2024-03-08T00:30:11;29.65;;;20.23;;
32186;SDS011;18686;53.084;8.872;2024-03-08T00:32:41;26.05;;;18.88;;
32186;SDS011;18686;53.084;8.872;2024-03-08T00:35:11;25.20;;;18.05;;
32186;SDS011;18686;53.084;8.872;2024-03-08T00:37:39;25.02;;;18.50;;
32186;SDS011;18686;53.084;8.872;2024-03-08T00:40:09;29.48;;;19.33;;
32186;SDS011;18686;53.084;8.872;2024-03-08T00:42:38;28.67;;;19.63;;
32186;SDS011;18686;53.084;8.872;2024-03-08T00:45:09;29.92;;;19.63;;
32186;SDS011;18686;53.084;8.872;2024-03-08T00:47:38;26.02;;;18.65;;
32186;SDS011;18686;53.084;8.872;2024-03-08T00:50:10;28.90;;;19.88;;
32186;SDS011;18686;53.084;8.872;2024-03-08T00:52:39;25.77;;;18.30;;
32186;SDS011;18686;53.084;8.872;2024-03-08T00:55:07;29.35;;;19.48;;
32186;SDS011;18686;53.084;8.872;2024-03-08T00:57:37;26.48;;;18.77;;
32186;SDS011;18686;53.084;8.872;2024-03-08T01:00:07;28.48;;;19.45;;
32186;SDS011;18686;53.084;8.872;2024-03-08T01:02:39;26.50;;;18.98;;
32186;SDS011;18686;53.084;8.872;2024-03-08T01:05:07;28.58;;;18.60;;
32186;SDS011;18686;53.084;8.872;2024-03-08T01:07:39;28.67;;;19.33;;
32186;SDS011;18686;53.084;8.872;2024-03-08T01:10:07;29.80;;;19.27;;
32186;SDS011;18686;53.084;8.872;2024-03-08T01:12:37;30.92;;;18.63;;
32186;SDS011;18686;53.084;8.872;2024-03-08T01:15:06;24.30;;;17.65;;
32186;SDS011;18686;53.084;8.872;2024-03-08T01:17:34;28.98;;;18.40;;
32186;SDS011;18686;53.084;8.872;2024-03-08T01:20:03;27.58;;;19.63;;
32186;SDS011;18686;53.084;8.872;2024-03-08T01:22:31;29.13;;;19.38;;
32186;SDS011;18686;53.084;8.872;2024-03-08T01:25:01;26.30;;;18.98;;
32186;SDS011;18686;53.084;8.872;2024-03-08T01:27:31;27.55;;;18.33;;
32186;SDS011;18686;53.084;8.872;2024-03-08T01:30:03;25.33;;;17.70;;
32186;SDS011;18686;53.084;8.872;2024-03-08T01:32:32;28.15;;;19.30;;
32186;SDS011;18686;53.084;8.872;2024-03-08T01:35:02;27.80;;;18.90;;
32186;SDS011;18686;53.084;8.872;2024-03-08T01:37:31;29.30;;;19.63;;
32186;SDS011;18686;53.084;8.872;2024-03-08T01:39:59;27.42;;;18.80;;
32186;SDS011;18686;53.084;8.872;2024-03-08T01:42:30;25.08;;;18.77;;
32186;SDS011;18686;53.084;8.872;2024-03-08T01:44:58;28.30;;;19.77;;
32186;SDS011;18686;53.084;8.872;2024-03-08T01:47:27;26.48;;;18.17;;
32186;SDS011;18686;53.084;8.872;2024-03-08T01:49:55;26.13;;;18.52;;
32186;SDS011;18686;53.084;8.872;2024-03-08T01:52:23;27.10;;;19.38;;
32186;SDS011;18686;53.084;8.872;2024-03-08T01:54:52;26.27;;;18.55;;
32186;SDS011;18686;53.084;8.872;2024-03-08T01:57:22;26.63;;;19.23;;
32186;SDS011;18686;53.084;8.872;2024-03-08T01:59:51;28.10;;;18.73;;
32186;SDS011;18686;53.084;8.872;2024-03-08T02:02:20;26.25;;;18.58;;
32186;SDS011;18686;53.084;8.872;2024-03-08T02:04:49;25.00;;;18.58;;
32186;SDS011;18686;53.084;8.872;2024-03-08T02:07:19;28.10;;;18.83;;
32186;SDS011;18686;53.084;8.872;2024-03-08T02:09:48;27.02;;;19.63;;
32186;SDS011;18686;53.084;8.872;2024-03-08T02:12:18;26.85;;;19.27;;
32186;SDS011;18686;53.084;8.872;2024-03-08T02:14:49;27.15;;;18.98;;
32186;SDS011;18686;53.084;8.872;2024-03-08T02:17:17;31.27;;;19.65;;
32186;SDS011;18686;53.084;8.872;2024-03-08T02:19:45;27.92;;;19.80;;
32186;SDS011;18686;53.084;8.872;2024-03-08T02:22:15;28.05;;;19.50;;
32186;SDS011;18686;53.084;8.872;2024-03-08T02:24:44;28.63;;;20.20;;
32186;SDS011;18686;53.084;8.872;2024-03-08T02:27:12;27.15;;;19.77;;
32186;SDS011;18686;53.084;8.872;2024-03-08T02:29:40;26.65;;;19.08;;
32186;SDS011;18686;53.084;8.872;2024-03-08T02:32:13;26.38;;;18.75;;
32186;SDS011;18686;53.084;8.872;2024-03-08T02:34:42;26.67;;;19.05;;
32186;SDS011;18686;53.084;8.872;2024-03-08T02:37:10;28.65;;;19.08;;
32186;SDS011;18686;53.084;8.872;2024-03-08T02:39:39;25.67;;;19.65;;
32186;SDS011;18686;53.084;8.872;2024-03-08T02:42:08;26.92;;;19.85;;
32186;SDS011;18686;53.084;8.872;2024-03-08T02:44:36;27.65;;;18.95;;
32186;SDS011;18686;53.084;8.872;2024-03-08T02:47:04;27.30;;;19.70;;
32186;SDS011;18686;53.084;8.872;2024-03-08T02:49:33;27.35;;;19.52;;
32186;SDS011;18686;53.084;8.872;2024-03-08T02:52:04;26.15;;;19.25;;
32186;SDS011;18686;53.084;8.872;2024-03-08T02:54:33;28.40;;;20.00;;
32186;SDS011;18686;53.084;8.872;2024-03-08T02:57:05;28.30;;;19.75;;
32186;SDS011;18686;53.084;8.872;2024-03-08T02:59:34;33.95;;;20.27;;
32186;SDS011;18686;53.084;8.872;2024-03-08T03:02:06;27.08;;;20.45;;
32186;SDS011;18686;53.084;8.872;2024-03-08T03:04:36;28.83;;;19.52;;
32186;SDS011;18686;53.084;8.872;2024-03-08T03:07:08;27.15;;;19.45;;
32186;SDS011;18686;53.084;8.872;2024-03-08T03:09:37;28.45;;;20.80;;
32186;SDS011;18686;53.084;8.872;2024-03-08T03:12:07;30.33;;;21.08;;
32186;SDS011;18686;53.084;8.872;2024-03-08T03:14:36;28.10;;;20.45;;
32186;SDS011;18686;53.084;8.872;2024-03-08T03:17:04;28.42;;;20.67;;
32186;SDS011;18686;53.084;8.872;2024-03-08T03:19:36;28.05;;;19.83;;
32186;SDS011;18686;53.084;8.872;2024-03-08T03:22:09;29.05;;;21.80;;
32186;SDS011;18686;53.084;8.872;2024-03-08T03:24:38;31.20;;;22.27;;
32186;SDS011;18686;53.084;8.872;2024-03-08T03:27:09;30.52;;;20.73;;
32186;SDS011;18686;53.084;8.872;2024-03-08T03:29:39;30.98;;;22.33;;
32186;SDS011;18686;53.084;8.872;2024-03-08T03:32:09;31.13;;;21.90;;
32186;SDS011;18686;53.084;8.872;2024-03-08T03:34:38;30.13;;;21.48;;
32186;SDS011;18686;53.084;8.872;2024-03-08T03:37:06;29.33;;;21.10;;
32186;SDS011;18686;53.084;8.872;2024-03-08T03:39:39;31.20;;;21.77;;
32186;SDS011;18686;53.084;8.872;2024-03-08T03:42:16;32.38;;;23.00;;
32186;SDS011;18686;53.084;8.872;2024-03-08T03:44:47;31.17;;;22.30;;
32186;SDS011;18686;53.084;8.872;2024-03-08T03:47:17;32.42;;;22.70;;
32186;SDS011;18686;53.084;8.872;2024-03-08T03:49:47;29.70;;;21.98;;
32186;SDS011;18686;53.084;8.872;2024-03-08T03:52:15;28.50;;;21.80;;
32186;SDS011;18686;53.084;8.872;2024-03-08T03:54:43;29.85;;;22.23;;
32186;SDS011;18686;53.084;8.872;2024-03-08T03:57:11;29.50;;;22.35;;
32186;SDS011;18686;53.084;8.872;2024-03-08T03:59:41;31.70;;;22.83;;
32186;SDS011;18686;53.084;8.872;2024-03-08T04:02:09;29.77;;;21.48;;
32186;SDS011;18686;53.084;8.872;2024-03-08T04:04:37;29.00;;;21.58;;
32186;SDS011;18686;53.084;8.872;2024-03-08T04:07:06;32.00;;;22.42;;
32186;SDS011;18686;53.084;8.872;2024-03-08T04:09:34;31.45;;;22.75;;
32186;SDS011;18686;53.084;8.872;2024-03-08T04:12:03;27.45;;;21.60;;
32186;SDS011;18686;53.084;8.872;2024-03-08T04:14:32;27.52;;;21.02;;
32186;SDS011;18686;53.084;8.872;2024-03-08T04:17:02;32.40;;;21.50;;
32186;SDS011;18686;53.084;8.872;2024-03-08T04:19:32;37.13;;;22.77;;
32186;SDS011;18686;53.084;8.872;2024-03-08T04:22:01;32.13;;;23.55;;
32186;SDS011;18686;53.084;8.872;2024-03-08T04:24:29;30.48;;;22.40;;
32186;SDS011;18686;53.084;8.872;2024-03-08T04:26:58;30.73;;;22.73;;
32186;SDS011;18686;53.084;8.872;2024-03-08T04:29:26;30.25;;;22.38;;
32186;SDS011;18686;53.084;8.872;2024-03-08T04:31:54;31.27;;;22.83;;
32186;SDS011;18686;53.084;8.872;2024-03-08T04:34:24;29.80;;;23.08;;
32186;SDS011;18686;53.084;8.872;2024-03-08T04:36:54;34.97;;;24.17;;
32186;SDS011;18686;53.084;8.872;2024-03-08T04:39:24;31.45;;;23.38;;
32186;SDS011;18686;53.084;8.872;2024-03-08T04:41:54;34.47;;;23.58;;
32186;SDS011;18686;53.084;8.872;2024-03-08T04:44:26;30.30;;;22.35;;
32186;SDS011;18686;53.084;8.872;2024-03-08T04:46:54;33.50;;;23.80;;
32186;SDS011;18686;53.084;8.872;2024-03-08T04:49:23;35.05;;;24.33;;
32186;SDS011;18686;53.084;8.872;2024-03-08T04:51:51;30.60;;;23.48;;
32186;SDS011;18686;53.084;8.872;2024-03-08T04:54:21;32.08;;;23.35;;
32186;SDS011;18686;53.084;8.872;2024-03-08T04:56:50;35.88;;;24.38;;
32186;SDS011;18686;53.084;8.872;2024-03-08T04:59:18;30.73;;;22.85;;
32186;SDS011;18686;53.084;8.872;2024-03-08T05:01:46;34.80;;;23.65;;
32186;SDS011;18686;53.084;8.872;2024-03-08T05:04:15;35.25;;;24.73;;
32186;SDS011;18686;53.084;8.872;2024-03-08T05:06:44;33.40;;;24.23;;
32186;SDS011;18686;53.084;8.872;2024-03-08T05:09:12;39.60;;;25.98;;
32186;SDS011;18686;53.084;8.872;2024-03-08T05:11:41;39.25;;;25.23;;
32186;SDS011;18686;53.084;8.872;2024-03-08T05:14:09;33.83;;;25.00;;
32186;SDS011;18686;53.084;8.872;2024-03-08T05:16:39;35.15;;;25.20;;
32186;SDS011;18686;53.084;8.872;2024-03-08T05:19:07;35.90;;;24.38;;
32186;SDS011;18686;53.084;8.872;2024-03-08T05:21:35;37.13;;;25.50;;
32186;SDS011;18686;53.084;8.872;2024-03-08T05:24:05;40.35;;;25.05;;
32186;SDS011;18686;53.084;8.872;2024-03-08T05:26:34;36.80;;;25.17;;
32186;SDS011;18686;53.084;8.872;2024-03-08T05:29:03;38.78;;;24.83;;
32186;SDS011;18686;53.084;8.872;2024-03-08T05:31:34;36.42;;;25.42;;
32186;SDS011;18686;53.084;8.872;2024-03-08T05:34:10;38.33;;;26.08;;
32186;SDS011;18686;53.084;8.872;2024-03-08T05:36:41;39.80;;;26.05;;
32186;SDS011;18686;53.084;8.872;2024-03-08T05:39:12;40.00;;;25.98;;
32186;SDS011;18686;53.084;8.872;2024-03-08T05:41:41;35.75;;;25.17;;
32186;SDS011;18686;53.084;8.872;2024-03-08T05:44:10;38.35;;;26.70;;
32186;SDS011;18686;53.084;8.872;2024-03-08T05:46:40;39.28;;;25.95;;
32186;SDS011;18686;53.084;8.872;2024-03-08T05:49:08;37.78;;;26.50;;
32186;SDS011;18686;53.084;8.872;2024-03-08T05:51:38;38.70;;;25.63;;
32186;SDS011;18686;53.084;8.872;2024-03-08T05:54:08;38.53;;;26.75;;
32186;SDS011;18686;53.084;8.872;2024-03-08T05:56:40;37.47;;;25.70;;
32186;SDS011;18686;53.084;8.872;2024-03-08T05:59:10;34.25;;;25.85;;
32186;SDS011;18686;53.084;8.872;2024-03-08T06:01:40;39.38;;;25.65;;
32186;SDS011;18686;53.084;8.872;2024-03-08T06:04:09;34.53;;;25.15;;
32186;SDS011;18686;53.084;8.872;2024-03-08T06:06:38;35.78;;;26.55;;
32186;SDS011;18686;53.084;8.872;2024-03-08T06:09:08;34.95;;;25.20;;
32186;SDS011;18686;53.084;8.872;2024-03-08T06:11:40;40.00;;;27.10;;
32186;SDS011;18686;53.084;8.872;2024-03-08T06:14:09;35.80;;;26.52;;
32186;SDS011;18686;53.084;8.872;2024-03-08T06:16:37;37.17;;;27.17;;
32186;SDS011;18686;53.084;8.872;2024-03-08T06:19:06;37.88;;;26.88;;
32186;SDS011;18686;53.084;8.872;2024-03-08T06:21:34;38.20;;;27.95;;
32186;SDS011;18686;53.084;8.872;2024-03-08T06:24:02;37.63;;;26.95;;
32186;SDS011;18686;53.084;8.872;2024-03-08T06:26:31;37.40;;;26.67;;
32186;SDS011;18686;53.084;8.872;2024-03-08T06:29:04;34.30;;;25.40;;
32186;SDS011;18686;53.084;8.872;2024-03-08T06:31:33;39.50;;;28.08;;
32186;SDS011;18686;53.084;8.872;2024-03-08T06:34:05;40.50;;;27.73;;
32186;SDS011;18686;53.084;8.872;2024-03-08T06:36:35;37.20;;;25.83;;
32186;SDS011;18686;53.084;8.872;2024-03-08T06:39:08;34.80;;;25.45;;
32186;SDS011;18686;53.084;8.872;2024-03-08T06:41:36;32.08;;;25.05;;
32186;SDS011;18686;53.084;8.872;2024-03-08T06:44:06;39.45;;;26.45;;
32186;SDS011;18686;53.084;8.872;2024-03-08T06:46:36;35.40;;;25.35;;
32186;SDS011;18686;53.084;8.872;2024-03-08T06:49:04;35.75;;;26.52;;
32186;SDS011;18686;53.084;8.872;2024-03-08T06:51:34;34.42;;;25.58;;
32186;SDS011;18686;53.084;8.872;2024-03-08T06:54:02;33.05;;;25.38;;
32186;SDS011;18686;53.084;8.872;2024-03-08T06:56:35;34.08;;;23.98;;
32186;SDS011;18686;53.084;8.872;2024-03-08T06:59:04;33.38;;;23.95;;
32186;SDS011;18686;53.084;8.872;2024-03-08T07:01:34;34.22;;;22.92;;
32186;SDS011;18686;53.084;8.872;2024-03-08T07:04:03;30.73;;;23.27;;
32186;SDS011;18686;53.084;8.872;2024-03-08T07:06:32;29.55;;;21.02;;
32186;SDS011;18686;53.084;8.872;2024-03-08T07:09:01;32.83;;;22.38;;
32186;SDS011;18686;53.084;8.872;2024-03-08T07:11:29;31.88;;;21.08;;
32186;SDS011;18686;53.084;8.872;2024-03-08T07:13:59;30.05;;;20.92;;
32186;SDS011;18686;53.084;8.872;2024-03-08T07:16:29;30.55;;;19.70;;
32186;SDS011;18686;53.084;8.872;2024-03-08T07:18:59;28.95;;;19.17;;
32186;SDS011;18686;53.084;8.872;2024-03-08T07:21:27;26.73;;;19.13;;
32186;SDS011;18686;53.084;8.872;2024-03-08T07:23:56;33.08;;;19.88;;
32186;SDS011;18686;53.084;8.872;2024-03-08T07:26:40;27.52;;;18.50;;
32186;SDS011;18686;53.084;8.872;2024-03-08T07:29:08;28.40;;;18.90;;
32186;SDS011;18686;53.084;8.872;2024-03-08T07:31:37;23.23;;;17.33;;
32186;SDS011;18686;53.084;8.872;2024-03-08T07:34:18;27.63;;;18.60;;
32186;SDS011;18686;53.084;8.872;2024-03-08T07:36:47;25.17;;;18.10;;
32186;SDS011;18686;53.084;8.872;2024-03-08T07:39:16;25.70;;;17.25;;
32186;SDS011;18686;53.084;8.872;2024-03-08T07:41:45;32.97;;;19.33;;
32186;SDS011;18686;53.084;8.872;2024-03-08T07:44:14;27.45;;;18.30;;
32186;SDS011;18686;53.084;8.872;2024-03-08T07:46:42;25.40;;;17.55;;
32186;SDS011;18686;53.084;8.872;2024-03-08T07:49:10;28.85;;;17.90;;
32186;SDS011;18686;53.084;8.872;2024-03-08T07:51:42;23.25;;;17.00;;
32186;SDS011;18686;53.084;8.872;2024-03-08T07:54:11;23.60;;;17.02;;
32186;SDS011;18686;53.084;8.872;2024-03-08T07:56:39;24.55;;;16.50;;
32186;SDS011;18686;53.084;8.872;2024-03-08T07:59:08;24.63;;;16.30;;
32186;SDS011;18686;53.084;8.872;2024-03-08T08:01:38;25.17;;;16.65;;
32186;SDS011;18686;53.084;8.872;2024-03-08T08:04:06;22.83;;;16.38;;
32186;SDS011;18686;53.084;8.872;2024-03-08T08:06:38;20.35;;;15.80;;
32186;SDS011;18686;53.084;8.872;2024-03-08T08:09:09;25.85;;;15.35;;
32186;SDS011;18686;53.084;8.872;2024-03-08T08:11:41;24.17;;;16.00;;
32186;SDS011;18686;53.084;8.872;2024-03-08T08:14:10;22.35;;;15.70;;
32186;SDS011;18686;53.084;8.872;2024-03-08T08:16:38;21.35;;;14.57;;
32186;SDS011;18686;53.084;8.872;2024-03-08T08:19:08;21.58;;;14.85;;
32186;SDS011;18686;53.084;8.872;2024-03-08T08:21:38;22.23;;;14.20;;
32186;SDS011;18686;53.084;8.872;2024-03-08T08:24:06;21.13;;;15.45;;
32186;SDS011;18686;53.084;8.872;2024-03-08T08:26:37;20.30;;;15.05;;
32186;SDS011;18686;53.084;8.872;2024-03-08T08:29:06;24.40;;;14.63;;
32186;SDS011;18686;53.084;8.872;2024-03-08T08:31:34;24.20;;;15.50;;
32186;SDS011;18686;53.084;8.872;2024-03-08T08:34:02;19.67;;;13.45;;
32186;SDS011;18686;53.084;8.872;2024-03-08T08:36:31;19.10;;;14.15;;
32186;SDS011;18686;53.084;8.872;2024-03-08T08:39:00;20.75;;;15.13;;
32186;SDS011;18686;53.084;8.872;2024-03-08T08:41:31;23.05;;;15.23;;
32186;SDS011;18686;53.084;8.872;2024-03-08T08:43:59;20.95;;;15.48;;
32186;SDS011;18686;53.084;8.872;2024-03-08T08:46:41;21.58;;;13.98;;
32186;SDS011;18686;53.084;8.872;2024-03-08T08:49:09;21.75;;;16.08;;
32186;SDS011;18686;53.084;8.872;2024-03-08T08:51:41;21.80;;;15.10;;
32186;SDS011;18686;53.084;8.872;2024-03-08T08:54:09;20.67;;;13.60;;
32186;SDS011;18686;53.084;8.872;2024-03-08T08:56:43;18.65;;;13.75;;
32186;SDS011;18686;53.084;8.872;2024-03-08T08:59:12;19.30;;;14.38;;
32186;SDS011;18686;53.084;8.872;2024-03-08T09:01:41;20.98;;;14.05;;
32186;SDS011;18686;53.084;8.872;2024-03-08T09:04:09;14.77;;;12.05;;
32186;SDS011;18686;53.084;8.872;2024-03-08T09:06:39;19.13;;;13.13;;
32186;SDS011;18686;53.084;8.872;2024-03-08T09:09:08;19.95;;;13.82;;
32186;SDS011;18686;53.084;8.872;2024-03-08T09:11:37;19.88;;;13.38;;
32186;SDS011;18686;53.084;8.872;2024-03-08T09:14:09;19.45;;;14.32;;
32186;SDS011;18686;53.084;8.872;2024-03-08T09:16:38;18.23;;;13.48;;
32186;SDS011;18686;53.084;8.872;2024-03-08T09:19:07;16.85;;;11.90;;
32186;SDS011;18686;53.084;8.872;2024-03-08T09:21:37;15.65;;;12.45;;
32186;SDS011;18686;53.084;8.872;2024-03-08T09:24:06;17.67;;;12.73;;
32186;SDS011;18686;53.084;8.872;2024-03-08T09:26:36;18.73;;;13.85;;
32186;SDS011;18686;53.084;8.872;2024-03-08T09:29:04;15.43;;;12.07;;
32186;SDS011;18686;53.084;8.872;2024-03-08T09:31:34;18.73;;;14.32;;
32186;SDS011;18686;53.084;8.872;2024-03-08T09:34:04;16.17;;;13.68;;
32186;SDS011;18686;53.084;8.872;2024-03-08T09:36:37;19.65;;;13.63;;
32186;SDS011;18686;53.084;8.872;2024-03-08T09:39:08;16.77;;;12.50;;
32186;SDS011;18686;53.084;8.872;2024-03-08T09:41:36;16.73;;;13.73;;
32186;SDS011;18686;53.084;8.872;2024-03-08T09:44:05;16.35;;;13.38;;
32186;SDS011;18686;53.084;8.872;2024-03-08T09:46:35;15.27;;;13.40;;
32186;SDS011;18686;53.084;8.872;2024-03-08T09:49:04;19.98;;;14.20;;
32186;SDS011;18686;53.084;8.872;2024-03-08T09:51:33;15.30;;;12.40;;
32186;SDS011;18686;53.084;8.872;2024-03-08T09:54:02;18.17;;;14.65;;
32186;SDS011;18686;53.084;8.872;2024-03-08T09:56:42;16.88;;;13.52;;
32186;SDS011;18686;53.084;8.872;2024-03-08T09:59:12;18.27;;;14.57;;
32186;SDS011;18686;53.084;8.872;2024-03-08T10:02:12;18.52;;;14.35;;
32186;SDS011;18686;53.084;8.872;2024-03-08T10:04:43;17.63;;;12.38;;
32186;SDS011;18686;53.084;8.872;2024-03-08T10:07:14;19.73;;;13.32;;
32186;SDS011;18686;53.084;8.872;2024-03-08T10:09:42;17.63;;;14.15;;
32186;SDS011;18686;53.084;8.872;2024-03-08T10:14:45;19.67;;;13.75;;
32186;SDS011;18686;53.084;8.872;2024-03-08T10:17:15;15.23;;;12.93;;
32186;SDS011;18686;53.084;8.872;2024-03-08T10:19:49;18.90;;;13.88;;
32186;SDS011;18686;53.084;8.872;2024-03-08T10:22:19;18.50;;;13.80;;
32186;SDS011;18686;53.084;8.872;2024-03-08T10:24:47;16.75;;;13.07;;
32186;SDS011;18686;53.084;8.872;2024-03-08T10:27:16;14.40;;;11.68;;
32186;SDS011;18686;53.084;8.872;2024-03-08T10:29:46;17.13;;;13.32;;
32186;SDS011;18686;53.084;8.872;2024-03-08T10:32:18;17.10;;;14.55;;
32186;SDS011;18686;53.084;8.872;2024-03-08T10:34:47;14.98;;;12.98;;
32186;SDS011;18686;53.084;8.872;2024-03-08T10:37:17;17.20;;;12.98;;
32186;SDS011;18686;53.084;8.872;2024-03-08T10:40:03;15.88;;;13.77;;
32186;SDS011;18686;53.084;8.872;2024-03-08T10:42:39;12.73;;;11.27;;
32186;SDS011;18686;53.084;8.872;2024-03-08T10:45:15;15.20;;;11.63;;
32186;SDS011;18686;53.084;8.872;2024-03-08T10:47:57;14.90;;;12.27;;
32186;SDS011;18686;53.084;8.872;2024-03-08T10:50:36;12.52;;;11.32;;
32186;SDS011;18686;53.084;8.872;2024-03-08T10:53:06;17.80;;;13.70;;
32186;SDS011;18686;53.084;8.872;2024-03-08T10:55:35;15.23;;;13.63;;
32186;SDS011;18686;53.084;8.872;2024-03-08T10:58:07;15.65;;;12.93;;
32186;SDS011;18686;53.084;8.872;2024-03-08T11:00:35;14.18;;;11.93;;
32186;SDS011;18686;53.084;8.872;2024-03-08T11:03:05;14.65;;;11.80;;
32186;SDS011;18686;53.084;8.872;2024-03-08T11:05:37;12.65;;;9.82;;
32186;SDS011;18686;53.084;8.872;2024-03-08T11:08:17;13.70;;;11.43;;
32186;SDS011;18686;53.084;8.872;2024-03-08T11:10:49;15.55;;;13.43;;
32186;SDS011;18686;53.084;8.872;2024-03-08T11:13:34;13.00;;;11.73;;
32186;SDS011;18686;53.084;8.872;2024-03-08T11:16:07;16.88;;;13.55;;
32186;SDS011;18686;53.084;8.872;2024-03-08T11:18:37;15.02;;;11.73;;
32186;SDS011;18686;53.084;8.872;2024-03-08T11:21:07;16.83;;;12.32;;
32186;SDS011;18686;53.084;8.872;2024-03-08T11:23:39;13.75;;;12.23;;
32186;SDS011;18686;53.084;8.872;2024-03-08T11:26:17;11.20;;;10.07;;
32186;SDS011;18686;53.084;8.872;2024-03-08T11:28:46;12.55;;;11.25;;
32186;SDS011;18686;53.084;8.872;2024-03-08T11:31:24;13.65;;;11.27;;
32186;SDS011;18686;53.084;8.872;2024-03-08T11:33:55;13.43;;;12.05;;
32186;SDS011;18686;53.084;8.872;2024-03-08T11:36:24;14.40;;;11.85;;
32186;SDS011;18686;53.084;8.872;2024-03-08T11:38:52;16.63;;;12.45;;
32186;SDS011;18686;53.084;8.872;2024-03-08T11:41:23;13.60;;;12.20;;
32186;SDS011;18686;53.084;8.872;2024-03-08T11:44:01;15.45;;;13.15;;
32186;SDS011;18686;53.084;8.872;2024-03-08T11:46:33;13.20;;;11.80;;
32186;SDS011;18686;53.084;8.872;2024-03-08T11:49:02;14.55;;;12.38;;
32186;SDS011;18686;53.084;8.872;2024-03-08T11:51:32;14.57;;;12.93;;
32186;SDS011;18686;53.084;8.872;2024-03-08T11:54:01;12.98;;;10.90;;
32186;SDS011;18686;53.084;8.872;2024-03-08T11:56:29;13.82;;;12.27;;
32186;SDS011;18686;53.084;8.872;2024-03-08T11:58:58;14.27;;;11.75;;
32186;SDS011;18686;53.084;8.872;2024-03-08T12:01:28;12.95;;;11.55;;
32186;SDS011;18686;53.084;8.872;2024-03-08T12:03:58;11.80;;;10.13;;
32186;SDS011;18686;53.084;8.872;2024-03-08T12:06:35;10.10;;;9.10;;
32186;SDS011;18686;53.084;8.872;2024-03-08T12:09:07;10.75;;;9.57;;
32186;SDS011;18686;53.084;8.872;2024-03-08T12:11:37;13.65;;;10.38;;
32186;SDS011;18686;53.084;8.872;2024-03-08T12:14:06;11.63;;;10.48;;
32186;SDS011;18686;53.084;8.872;2024-03-08T12:16:36;13.18;;;11.70;;
32186;SDS011;18686;53.084;8.872;2024-03-08T12:19:04;10.90;;;8.52;;
32186;SDS011;18686;53.084;8.872;2024-03-08T12:21:35;13.18;;;11.38;;
32186;SDS011;18686;53.084;8.872;2024-03-08T12:24:04;12.43;;;10.27;;
32186;SDS011;18686;53.084;8.872;2024-03-08T12:26:35;11.60;;;10.50;;
32186;SDS011;18686;53.084;8.872;2024-03-08T12:29:17;11.23;;;9.57;;
32186;SDS011;18686;53.084;8.872;2024-03-08T12:31:50;9.85;;;8.85;;
32186;SDS011;18686;53.084;8.872;2024-03-08T12:34:20;12.45;;;11.15;;
32186;SDS011;18686;53.084;8.872;2024-03-08T12:36:50;12.13;;;10.02;;
32186;SDS011;18686;53.084;8.872;2024-03-08T12:39:22;14.27;;;11.25;;
32186;SDS011;18686;53.084;8.872;2024-03-08T12:41:53;12.18;;;10.98;;
32186;SDS011;18686;53.084;8.872;2024-03-08T12:44:24;16.58;;;11.15;;
32186;SDS011;18686;53.084;8.872;2024-03-08T12:46:52;13.45;;;10.45;;
32186;SDS011;18686;53.084;8.872;2024-03-08T12:49:21;12.20;;;10.93;;
32186;SDS011;18686;53.084;8.872;2024-03-08T12:51:51;12.88;;;11.55;;
32186;SDS011;18686;53.084;8.872;2024-03-08T12:54:20;13.73;;;12.25;;
32186;SDS011;18686;53.084;8.872;2024-03-08T12:56:51;13.35;;;11.75;;
32186;SDS011;18686;53.084;8.872;2024-03-08T12:59:21;14.30;;;12.45;;
32186;SDS011;18686;53.084;8.872;2024-03-08T13:01:50;15.13;;;11.85;;
32186;SDS011;18686;53.084;8.872;2024-03-08T13:04:21;14.32;;;12.82;;
32186;SDS011;18686;53.084;8.872;2024-03-08T13:06:50;13.27;;;11.88;;
32186;SDS011;18686;53.084;8.872;2024-03-08T13:09:21;11.90;;;10.70;;
32186;SDS011;18686;53.084;8.872;2024-03-08T13:11:50;12.88;;;11.48;;
32186;SDS011;18686;53.084;8.872;2024-03-08T13:14:20;14.88;;;12.50;;
32186;SDS011;18686;53.084;8.872;2024-03-08T13:16:48;12.85;;;11.32;;
32186;SDS011;18686;53.084;8.872;2024-03-08T13:19:18;13.95;;;12.55;;
32186;SDS011;18686;53.084;8.872;2024-03-08T13:21:48;15.65;;;13.23;;
32186;SDS011;18686;53.084;8.872;2024-03-08T13:24:18;15.20;;;12.93;;
32186;SDS011;18686;53.084;8.872;2024-03-08T13:26:46;14.45;;;12.07;;
32186;SDS011;18686;53.084;8.872;2024-03-08T13:29:16;15.65;;;13.95;;
32186;SDS011;18686;53.084;8.872;2024-03-08T13:31:45;14.07;;;12.50;;
32186;SDS011;18686;53.084;8.872;2024-03-08T13:34:18;12.93;;;11.43;;
32186;SDS011;18686;53.084;8.872;2024-03-08T13:36:56;13.35;;;11.95;;
32186;SDS011;18686;53.084;8.872;2024-03-08T13:39:27;13.27;;;11.88;;
32186;SDS011;18686;53.084;8.872;2024-03-08T13:41:57;15.13;;;11.60;;
32186;SDS011;18686;53.084;8.872;2024-03-08T13:44:25;13.40;;;11.52;;
32186;SDS011;18686;53.084;8.872;2024-03-08T13:46:54;11.13;;;10.02;;
32186;SDS011;18686;53.084;8.872;2024-03-08T13:49:24;11.60;;;10.40;;
32186;SDS011;18686;53.084;8.872;2024-03-08T13:51:53;12.57;;;10.13;;
32186;SDS011;18686;53.084;8.872;2024-03-08T13:54:23;12.77;;;11.43;;
32186;SDS011;18686;53.084;8.872;2024-03-08T13:56:51;13.07;;;11.68;;
32186;SDS011;18686;53.084;8.872;2024-03-08T13:59:20;13.75;;;11.13;;
32186;SDS011;18686;53.084;8.872;2024-03-08T14:01:49;12.68;;;10.88;;
32186;SDS011;18686;53.084;8.872;2024-03-08T14:04:18;12.38;;;11.02;;
32186;SDS011;18686;53.084;8.872;2024-03-08T14:06:48;12.85;;;9.93;;
32186;SDS011;18686;53.084;8.872;2024-03-08T14:09:18;15.02;;;11.60;;
32186;SDS011;18686;53.084;8.872;2024-03-08T14:11:47;12.48;;;11.18;;
32186;SDS011;18686;53.084;8.872;2024-03-08T14:14:15;13.65;;;12.13;;
32186;SDS011;18686;53.084;8.872;2024-03-08T14:16:44;15.65;;;13.27;;
32186;SDS011;18686;53.084;8.872;2024-03-08T14:19:12;16.55;;;13.70;;
32186;SDS011;18686;53.084;8.872;2024-03-08T14:21:41;18.20;;;13.50;;
32186;SDS011;18686;53.084;8.872;2024-03-08T14:24:09;19.17;;;14.40;;
32186;SDS011;18686;53.084;8.872;2024-03-08T14:26:38;19.00;;;13.95;;
32186;SDS011;18686;53.084;8.872;2024-03-08T14:29:07;16.60;;;14.05;;
32186;SDS011;18686;53.084;8.872;2024-03-08T14:31:36;18.40;;;14.25;;
32186;SDS011;18686;53.084;8.872;2024-03-08T14:34:04;21.40;;;14.75;;
32186;SDS011;18686;53.084;8.872;2024-03-08T14:36:33;19.98;;;14.77;;
32186;SDS011;18686;53.084;8.872;2024-03-08T14:39:02;18.38;;;14.38;;